Portada
METAR-TAF:

METAR-TAF

Aeropuertos :

Aeropuerto Internacional de Volgogrado

Volgogrado, Rusia

latitud: 48-47N, longitud: 044-22E, altitud: 145 m

Observación

El informe se hizo hace 10 horas y 49 minutos, a las 05:00 UTC
Viento calma
Temperatura 23°C
Humedad 31%
Presión 1019 hPa
Visibilidad 10 km o más
sin nubes por debajo de 1500 m y sin presencia de cumulonimbus.

METAR: URWW 210500Z 00000MPS CAVOK 23/05 Q1019 R06/010070 NOSIG

Hora: 18:49 (15:49 UTC)

Pronóstico

El informe se hizo hace 10 horas y 52 minutos, a las 04:57 UTC
Pronóstico válido del 21 a las 06 UTC al 21 a las 15 UTC
Viento 6 kt del sur con ráfagas de 16 kt
Visibilidad 10 km o más
sin nubes por debajo de 1500 m y sin presencia de cumulonimbus.
Temporalmente
del 21 a las 06 UTC al 21 a las 15 UTC
Viento 6 kt del sur-sureste con ráfagas de 16 kt

TAF: URWW 210457Z 2106/2115 18003G08MPS CAVOK TEMPO 2106/2115 15003G08MPS

Observaciones y pronósticos meteorológicos de más de 4000 aeropuertos (mensajes METAR y TAF).

Los puntos amarillos y rojos representan las estaciones disponibles.

Ponga el ratón en el punto deseado para ver el nombre de la estación.

Haga clic para ver las observaciones y los pronósticos meteorológicos.

Para cambiar el mapa : haga clic en los botones verdes con una cruz de color negro para hacer un zoom, en el botón verde con un guión para alejar o en las flechas verdes para mapas adyacentes.


METAR-TAF: